TimeCDT,TemperatureF,Dew PointF,Humidity,Sea Level PressureIn,VisibilityMPH,Wind Direction,Wind SpeedMPH,Gust SpeedMPH,PrecipitationIn,Events,Conditions,WindDirDegrees,DateUTC
12:56 AM,65.8,59.9,81,29.99,10.0,WNW,11.5,-,0.00,Rain,Light Rain,300,2012-10-06 05:56:00
1:25 AM,60.8,57.2,88,30.02,10.0,NNW,13.8,-,0.00,,Mostly Cloudy,330,2012-10-06 06:25:00
1:34 AM,57.2,55.4,94,30.04,10.0,NNW,9.2,-,0.00,,Mostly Cloudy,340,2012-10-06 06:34:00
1:56 AM,54.0,52.0,93,30.06,9.0,NW,8.1,-,0.00,,Overcast,320,2012-10-06 06:56:00
2:56 AM,50.0,47.8,92,30.07,10.0,NNW,6.9,-,N/A,,Overcast,330,2012-10-06 07:56:00
3:33 AM,48.2,48.2,100,30.09,1.8,NW,9.2,-,0.03,Rain,Heavy Rain,310,2012-10-06 08:33:00
3:42 AM,48.2,48.2,100,30.10,2.0,NW,9.2,-,0.04,Rain,Rain,320,2012-10-06 08:42:00
3:56 AM,47.8,46.9,97,30.09,1.5,North,10.4,-,0.09,Rain,Heavy Rain,360,2012-10-06 08:56:00
4:03 AM,48.2,46.4,93,30.09,1.2,Calm,Calm,-,0.03,Rain,Rain,0,2012-10-06 09:03:00
4:08 AM,48.2,46.4,93,30.10,1.8,Calm,Calm,-,0.05,Rain,Heavy Rain,0,2012-10-06 09:08:00
4:28 AM,46.4,46.4,100,30.10,2.0,Calm,Calm,-,0.10,Rain,Light Rain,0,2012-10-06 09:28:00
4:38 AM,46.4,46.4,100,30.09,5.0,Calm,Calm,-,0.10,Rain,Light Rain,0,2012-10-06 09:38:00
4:56 AM,46.9,46.9,100,30.12,10.0,NW,5.8,-,0.10,,Overcast,310,2012-10-06 09:56:00
5:37 AM,46.4,46.4,100,30.12,10.0,North,8.1,-,0.02,,Overcast,350,2012-10-06 10:37:00
5:45 AM,46.4,46.4,100,30.12,10.0,North,6.9,-,0.02,,Overcast,350,2012-10-06 10:45:00
5:56 AM,46.9,46.9,100,30.14,10.0,North,8.1,-,0.02,,Overcast,350,2012-10-06 10:56:00
6:05 AM,46.4,46.4,100,30.13,10.0,North,9.2,-,N/A,,Overcast,350,2012-10-06 11:05:00
6:15 AM,46.4,44.6,93,30.14,10.0,North,9.2,-,N/A,,Overcast,350,2012-10-06 11:15:00
6:56 AM,45.9,45.0,97,30.16,3.0,North,6.9,-,0.00,Rain,Light Rain,360,2012-10-06 11:56:00
7:03 AM,46.4,46.4,100,30.14,2.5,North,6.9,-,0.00,Rain,Light Rain,360,2012-10-06 12:03:00
7:13 AM,46.4,46.4,100,30.15,3.0,Calm,Calm,-,0.00,,Overcast,0,2012-10-06 12:13:00
7:56 AM,45.0,45.0,100,30.18,8.0,NW,9.2,-,0.00,,Overcast,320,2012-10-06 12:56:00
8:56 AM,45.0,43.9,96,30.19,9.0,North,10.4,-,N/A,,Overcast,350,2012-10-06 13:56:00
9:21 AM,44.6,44.6,100,30.18,10.0,North,9.2,-,N/A,,Overcast,350,2012-10-06 14:21:00
9:56 AM,45.9,43.9,93,30.21,10.0,North,4.6,-,N/A,,Overcast,350,2012-10-06 14:56:00
10:56 AM,46.9,43.0,86,30.20,10.0,North,5.8,-,N/A,,Overcast,10,2012-10-06 15:56:00
11:31 AM,50.0,42.8,76,30.17,10.0,Calm,Calm,-,N/A,,Mostly Cloudy,0,2012-10-06 16:31:00
11:56 AM,52.9,43.0,69,30.18,10.0,North,8.1,-,N/A,,Scattered Clouds,10,2012-10-06 16:56:00
12:07 PM,53.6,42.8,67,30.16,10.0,North,5.8,-,N/A,,Mostly Cloudy,360,2012-10-06 17:07:00
12:56 PM,52.9,41.9,66,30.15,10.0,Variable,3.5,-,N/A,,Overcast,0,2012-10-06 17:56:00
1:39 PM,55.4,42.8,63,30.12,10.0,Calm,Calm,-,N/A,,Scattered Clouds,0,2012-10-06 18:39:00
1:56 PM,56.8,41.0,55,30.13,10.0,NNW,4.6,-,N/A,,Partly Cloudy,340,2012-10-06 18:56:00
2:56 PM,59.9,36.9,42,30.12,10.0,East,9.2,-,N/A,,Clear,80,2012-10-06 19:56:00
3:56 PM,59.9,34.9,39,30.12,10.0,NNE,4.6,-,N/A,,Clear,30,2012-10-06 20:56:00
4:56 PM,59.0,36.0,42,30.13,10.0,North,6.9,-,N/A,,Clear,350,2012-10-06 21:56:00
5:56 PM,54.9,38.8,55,30.14,10.0,Calm,Calm,-,N/A,,Clear,0,2012-10-06 22:56:00
6:56 PM,50.0,39.9,68,30.15,10.0,Calm,Calm,-,N/A,,Clear,0,2012-10-06 23:56:00
7:56 PM,48.9,45.0,86,30.14,10.0,Calm,Calm,-,N/A,,Clear,0,2012-10-07 00:56:00
8:56 PM,50.9,38.8,63,30.17,10.0,Calm,Calm,-,N/A,,Partly Cloudy,0,2012-10-07 01:56:00
9:56 PM,52.0,36.0,54,30.17,10.0,Calm,Calm,-,N/A,,Overcast,0,2012-10-07 02:56:00
10:56 PM,50.9,36.9,59,30.17,10.0,Calm,Calm,-,0.00,Rain,Light Rain,0,2012-10-07 03:56:00
11:56 PM,48.9,43.9,83,30.15,10.0,Calm,Calm,-,0.00,,Mostly Cloudy,0,2012-10-07 04:56:00